sensor_id;sensor_type;location;lat;lon;timestamp;P1;durP1;ratioP1;P2;durP2;ratioP2
35562;SDS011;21665;40.108;18.302;2023-06-22T00:00:56;21.30;;;19.52;;
35562;SDS011;21665;40.108;18.302;2023-06-22T00:03:23;20.55;;;19.05;;
35562;SDS011;21665;40.108;18.302;2023-06-22T00:05:51;21.02;;;19.33;;
35562;SDS011;21665;40.108;18.302;2023-06-22T00:08:18;20.25;;;18.55;;
35562;SDS011;21665;40.108;18.302;2023-06-22T00:10:45;21.73;;;19.98;;
35562;SDS011;21665;40.108;18.302;2023-06-22T00:13:12;21.63;;;19.88;;
35562;SDS011;21665;40.108;18.302;2023-06-22T00:15:40;21.00;;;19.35;;
35562;SDS011;21665;40.108;18.302;2023-06-22T00:18:07;20.70;;;19.13;;
35562;SDS011;21665;40.108;18.302;2023-06-22T00:20:35;21.00;;;19.20;;
35562;SDS011;21665;40.108;18.302;2023-06-22T00:23:05;20.42;;;18.75;;
35562;SDS011;21665;40.108;18.302;2023-06-22T00:25:39;20.92;;;19.23;;
35562;SDS011;21665;40.108;18.302;2023-06-22T00:28:06;20.27;;;18.63;;
35562;SDS011;21665;40.108;18.302;2023-06-22T00:30:34;20.73;;;18.90;;
35562;SDS011;21665;40.108;18.302;2023-06-22T00:33:01;20.42;;;18.73;;
35562;SDS011;21665;40.108;18.302;2023-06-22T00:35:28;20.20;;;18.48;;
35562;SDS011;21665;40.108;18.302;2023-06-22T00:37:55;20.02;;;18.38;;
35562;SDS011;21665;40.108;18.302;2023-06-22T00:40:30;19.88;;;18.17;;
35562;SDS011;21665;40.108;18.302;2023-06-22T00:42:58;20.05;;;18.38;;
35562;SDS011;21665;40.108;18.302;2023-06-22T00:45:25;20.85;;;19.08;;
35562;SDS011;21665;40.108;18.302;2023-06-22T00:47:53;20.02;;;18.52;;
35562;SDS011;21665;40.108;18.302;2023-06-22T00:50:22;20.05;;;18.55;;
35562;SDS011;21665;40.108;18.302;2023-06-22T00:52:52;20.55;;;18.85;;
35562;SDS011;21665;40.108;18.302;2023-06-22T00:55:22;20.30;;;18.65;;
35562;SDS011;21665;40.108;18.302;2023-06-22T00:57:49;21.33;;;19.42;;
35562;SDS011;21665;40.108;18.302;2023-06-22T01:00:16;19.45;;;17.83;;
35562;SDS011;21665;40.108;18.302;2023-06-22T01:02:45;19.67;;;18.20;;
35562;SDS011;21665;40.108;18.302;2023-06-22T01:05:13;19.40;;;17.80;;
35562;SDS011;21665;40.108;18.302;2023-06-22T01:10:37;20.17;;;18.48;;
35562;SDS011;21665;40.108;18.302;2023-06-22T01:13:53;20.02;;;18.40;;
35562;SDS011;21665;40.108;18.302;2023-06-22T01:16:20;20.40;;;18.65;;
35562;SDS011;21665;40.108;18.302;2023-06-22T01:18:52;20.50;;;18.45;;
35562;SDS011;21665;40.108;18.302;2023-06-22T01:21:37;20.98;;;18.98;;
35562;SDS011;21665;40.108;18.302;2023-06-22T01:24:15;21.42;;;18.17;;
35562;SDS011;21665;40.108;18.302;2023-06-22T01:29:35;19.85;;;18.00;;
35562;SDS011;21665;40.108;18.302;2023-06-22T01:32:04;19.98;;;17.67;;
35562;SDS011;21665;40.108;18.302;2023-06-22T01:34:34;18.38;;;16.80;;
35562;SDS011;21665;40.108;18.302;2023-06-22T01:37:03;18.60;;;16.90;;
35562;SDS011;21665;40.108;18.302;2023-06-22T01:39:29;18.92;;;17.08;;
35562;SDS011;21665;40.108;18.302;2023-06-22T01:41:57;18.42;;;16.88;;
35562;SDS011;21665;40.108;18.302;2023-06-22T01:44:25;19.08;;;17.15;;
35562;SDS011;21665;40.108;18.302;2023-06-22T01:46:52;19.08;;;16.92;;
35562;SDS011;21665;40.108;18.302;2023-06-22T01:49:19;18.40;;;16.75;;
35562;SDS011;21665;40.108;18.302;2023-06-22T01:51:45;17.90;;;16.33;;
35562;SDS011;21665;40.108;18.302;2023-06-22T01:54:12;18.45;;;16.55;;
35562;SDS011;21665;40.108;18.302;2023-06-22T01:56:38;17.30;;;15.73;;
35562;SDS011;21665;40.108;18.302;2023-06-22T02:01:47;18.10;;;16.45;;
35562;SDS011;21665;40.108;18.302;2023-06-22T02:07:13;20.23;;;16.27;;
35562;SDS011;21665;40.108;18.302;2023-06-22T02:09:44;17.00;;;15.52;;
35562;SDS011;21665;40.108;18.302;2023-06-22T02:12:12;16.60;;;15.15;;
35562;SDS011;21665;40.108;18.302;2023-06-22T02:14:42;16.80;;;15.05;;
35562;SDS011;21665;40.108;18.302;2023-06-22T02:17:10;16.35;;;14.90;;
35562;SDS011;21665;40.108;18.302;2023-06-22T02:19:37;16.38;;;14.98;;
35562;SDS011;21665;40.108;18.302;2023-06-22T02:22:04;16.83;;;15.32;;
35562;SDS011;21665;40.108;18.302;2023-06-22T02:24:31;15.80;;;14.40;;
35562;SDS011;21665;40.108;18.302;2023-06-22T02:26:59;18.77;;;14.65;;
35562;SDS011;21665;40.108;18.302;2023-06-22T02:29:28;15.93;;;14.45;;
35562;SDS011;21665;40.108;18.302;2023-06-22T02:31:54;15.63;;;14.07;;
35562;SDS011;21665;40.108;18.302;2023-06-22T02:34:21;15.15;;;13.70;;
35562;SDS011;21665;40.108;18.302;2023-06-22T02:36:50;15.88;;;14.32;;
35562;SDS011;21665;40.108;18.302;2023-06-22T02:39:20;17.33;;;14.95;;
35562;SDS011;21665;40.108;18.302;2023-06-22T02:41:50;15.60;;;14.07;;
35562;SDS011;21665;40.108;18.302;2023-06-22T02:44:17;14.88;;;13.50;;
35562;SDS011;21665;40.108;18.302;2023-06-22T02:46:44;14.93;;;13.52;;
35562;SDS011;21665;40.108;18.302;2023-06-22T02:49:13;15.88;;;14.30;;
35562;SDS011;21665;40.108;18.302;2023-06-22T02:51:42;17.67;;;13.90;;
35562;SDS011;21665;40.108;18.302;2023-06-22T02:54:12;15.45;;;13.95;;
35562;SDS011;21665;40.108;18.302;2023-06-22T02:56:39;15.25;;;13.75;;
35562;SDS011;21665;40.108;18.302;2023-06-22T02:59:09;15.05;;;13.70;;
35562;SDS011;21665;40.108;18.302;2023-06-22T03:01:38;15.27;;;13.82;;
35562;SDS011;21665;40.108;18.302;2023-06-22T03:04:12;15.18;;;13.85;;
35562;SDS011;21665;40.108;18.302;2023-06-22T03:06:39;15.20;;;13.77;;
35562;SDS011;21665;40.108;18.302;2023-06-22T03:09:07;15.48;;;14.07;;
35562;SDS011;21665;40.108;18.302;2023-06-22T03:11:35;15.40;;;13.98;;
35562;SDS011;21665;40.108;18.302;2023-06-22T03:14:02;17.90;;;14.80;;
35562;SDS011;21665;40.108;18.302;2023-06-22T03:16:29;15.45;;;13.90;;
35562;SDS011;21665;40.108;18.302;2023-06-22T03:18:56;16.75;;;14.30;;
35562;SDS011;21665;40.108;18.302;2023-06-22T03:21:25;15.02;;;13.50;;
35562;SDS011;21665;40.108;18.302;2023-06-22T03:23:54;15.02;;;13.52;;
35562;SDS011;21665;40.108;18.302;2023-06-22T03:26:23;16.50;;;14.88;;
35562;SDS011;21665;40.108;18.302;2023-06-22T03:29:02;17.02;;;14.88;;
35562;SDS011;21665;40.108;18.302;2023-06-22T03:31:30;16.67;;;15.00;;
35562;SDS011;21665;40.108;18.302;2023-06-22T03:33:57;16.23;;;14.80;;
35562;SDS011;21665;40.108;18.302;2023-06-22T03:38:59;17.00;;;15.18;;
35562;SDS011;21665;40.108;18.302;2023-06-22T03:41:31;16.25;;;14.57;;
35562;SDS011;21665;40.108;18.302;2023-06-22T03:44:03;17.13;;;15.50;;
35562;SDS011;21665;40.108;18.302;2023-06-22T03:46:44;16.52;;;15.10;;
35562;SDS011;21665;40.108;18.302;2023-06-22T03:49:42;15.88;;;14.38;;
35562;SDS011;21665;40.108;18.302;2023-06-22T03:52:46;16.55;;;15.05;;
35562;SDS011;21665;40.108;18.302;2023-06-22T03:55:40;16.20;;;14.35;;
35562;SDS011;21665;40.108;18.302;2023-06-22T03:58:26;16.02;;;14.65;;
35562;SDS011;21665;40.108;18.302;2023-06-22T04:01:18;17.73;;;15.98;;
35562;SDS011;21665;40.108;18.302;2023-06-22T04:07:07;16.65;;;14.95;;
35562;SDS011;21665;40.108;18.302;2023-06-22T04:09:34;16.90;;;15.38;;
35562;SDS011;21665;40.108;18.302;2023-06-22T04:12:01;16.92;;;15.27;;
35562;SDS011;21665;40.108;18.302;2023-06-22T04:14:27;16.92;;;15.27;;
35562;SDS011;21665;40.108;18.302;2023-06-22T04:16:54;17.55;;;15.77;;
35562;SDS011;21665;40.108;18.302;2023-06-22T04:19:26;17.05;;;15.50;;
35562;SDS011;21665;40.108;18.302;2023-06-22T04:21:53;17.42;;;15.80;;
35562;SDS011;21665;40.108;18.302;2023-06-22T04:24:22;19.23;;;17.42;;
35562;SDS011;21665;40.108;18.302;2023-06-22T04:26:49;19.00;;;17.35;;
35562;SDS011;21665;40.108;18.302;2023-06-22T04:29:20;20.92;;;18.85;;
35562;SDS011;21665;40.108;18.302;2023-06-22T04:34:22;19.52;;;17.92;;
35562;SDS011;21665;40.108;18.302;2023-06-22T04:36:51;20.75;;;18.95;;
35562;SDS011;21665;40.108;18.302;2023-06-22T04:39:21;21.42;;;19.42;;
35562;SDS011;21665;40.108;18.302;2023-06-22T04:41:47;23.55;;;21.33;;
35562;SDS011;21665;40.108;18.302;2023-06-22T04:44:18;23.67;;;21.77;;
35562;SDS011;21665;40.108;18.302;2023-06-22T04:49:26;20.10;;;18.40;;
35562;SDS011;21665;40.108;18.302;2023-06-22T04:51:59;21.80;;;19.90;;
35562;SDS011;21665;40.108;18.302;2023-06-22T04:54:26;21.42;;;19.75;;
35562;SDS011;21665;40.108;18.302;2023-06-22T04:56:56;22.23;;;20.45;;
35562;SDS011;21665;40.108;18.302;2023-06-22T04:59:22;21.00;;;19.35;;
35562;SDS011;21665;40.108;18.302;2023-06-22T05:01:57;22.23;;;20.42;;
35562;SDS011;21665;40.108;18.302;2023-06-22T05:04:25;20.55;;;19.02;;
35562;SDS011;21665;40.108;18.302;2023-06-22T05:07:03;21.48;;;19.75;;
35562;SDS011;21665;40.108;18.302;2023-06-22T05:09:30;21.50;;;19.38;;
35562;SDS011;21665;40.108;18.302;2023-06-22T05:12:00;21.60;;;20.00;;
35562;SDS011;21665;40.108;18.302;2023-06-22T05:14:28;21.88;;;20.02;;
35562;SDS011;21665;40.108;18.302;2023-06-22T05:16:56;21.67;;;19.98;;
35562;SDS011;21665;40.108;18.302;2023-06-22T05:19:24;21.30;;;19.63;;
35562;SDS011;21665;40.108;18.302;2023-06-22T05:22:02;21.25;;;19.33;;
35562;SDS011;21665;40.108;18.302;2023-06-22T05:24:32;20.85;;;19.20;;
35562;SDS011;21665;40.108;18.302;2023-06-22T05:27:01;21.85;;;19.98;;
35562;SDS011;21665;40.108;18.302;2023-06-22T05:29:30;26.55;;;21.85;;
35562;SDS011;21665;40.108;18.302;2023-06-22T05:32:24;22.20;;;20.40;;
35562;SDS011;21665;40.108;18.302;2023-06-22T05:34:53;23.17;;;21.33;;
35562;SDS011;21665;40.108;18.302;2023-06-22T05:37:21;22.48;;;20.73;;
35562;SDS011;21665;40.108;18.302;2023-06-22T05:39:48;23.27;;;21.30;;
35562;SDS011;21665;40.108;18.302;2023-06-22T05:42:20;23.08;;;21.27;;
35562;SDS011;21665;40.108;18.302;2023-06-22T05:45:13;22.48;;;20.88;;
35562;SDS011;21665;40.108;18.302;2023-06-22T05:47:39;22.70;;;20.92;;
35562;SDS011;21665;40.108;18.302;2023-06-22T05:50:10;23.10;;;20.45;;
35562;SDS011;21665;40.108;18.302;2023-06-22T05:52:42;22.58;;;20.98;;
35562;SDS011;21665;40.108;18.302;2023-06-22T05:55:08;23.05;;;21.27;;
35562;SDS011;21665;40.108;18.302;2023-06-22T05:57:44;24.83;;;22.65;;
35562;SDS011;21665;40.108;18.302;2023-06-22T06:00:11;23.45;;;21.65;;
35562;SDS011;21665;40.108;18.302;2023-06-22T06:02:47;23.98;;;22.02;;
35562;SDS011;21665;40.108;18.302;2023-06-22T06:05:24;24.05;;;22.08;;
35562;SDS011;21665;40.108;18.302;2023-06-22T06:07:51;23.20;;;21.38;;
35562;SDS011;21665;40.108;18.302;2023-06-22T06:10:22;22.90;;;21.13;;
35562;SDS011;21665;40.108;18.302;2023-06-22T06:12:48;23.52;;;21.83;;
35562;SDS011;21665;40.108;18.302;2023-06-22T06:15:14;24.30;;;22.50;;
35562;SDS011;21665;40.108;18.302;2023-06-22T06:17:48;24.85;;;23.00;;
35562;SDS011;21665;40.108;18.302;2023-06-22T06:20:15;24.15;;;22.38;;
35562;SDS011;21665;40.108;18.302;2023-06-22T06:22:44;23.85;;;22.08;;
35562;SDS011;21665;40.108;18.302;2023-06-22T06:25:10;25.00;;;22.73;;
35562;SDS011;21665;40.108;18.302;2023-06-22T06:27:42;24.52;;;22.58;;
35562;SDS011;21665;40.108;18.302;2023-06-22T06:30:10;23.67;;;22.02;;
35562;SDS011;21665;40.108;18.302;2023-06-22T06:32:37;24.50;;;22.58;;
35562;SDS011;21665;40.108;18.302;2023-06-22T06:35:08;22.92;;;21.30;;
35562;SDS011;21665;40.108;18.302;2023-06-22T06:37:36;24.75;;;22.95;;
35562;SDS011;21665;40.108;18.302;2023-06-22T06:40:03;25.30;;;23.40;;
35562;SDS011;21665;40.108;18.302;2023-06-22T06:42:34;24.83;;;22.65;;
35562;SDS011;21665;40.108;18.302;2023-06-22T06:45:00;25.35;;;23.38;;
35562;SDS011;21665;40.108;18.302;2023-06-22T06:47:26;25.08;;;23.17;;
35562;SDS011;21665;40.108;18.302;2023-06-22T06:49:53;24.17;;;22.27;;
35562;SDS011;21665;40.108;18.302;2023-06-22T06:52:19;24.55;;;22.38;;
35562;SDS011;21665;40.108;18.302;2023-06-22T06:54:45;25.17;;;23.25;;
35562;SDS011;21665;40.108;18.302;2023-06-22T06:57:12;25.58;;;23.63;;
35562;SDS011;21665;40.108;18.302;2023-06-22T06:59:39;24.70;;;22.90;;
35562;SDS011;21665;40.108;18.302;2023-06-22T07:02:05;25.55;;;23.65;;
35562;SDS011;21665;40.108;18.302;2023-06-22T07:04:31;25.45;;;23.35;;
35562;SDS011;21665;40.108;18.302;2023-06-22T07:06:58;24.85;;;23.05;;
35562;SDS011;21665;40.108;18.302;2023-06-22T07:09:26;24.85;;;23.05;;
35562;SDS011;21665;40.108;18.302;2023-06-22T07:11:53;25.50;;;23.67;;
35562;SDS011;21665;40.108;18.302;2023-06-22T07:14:20;25.63;;;23.52;;
35562;SDS011;21665;40.108;18.302;2023-06-22T07:16:46;24.80;;;22.75;;
35562;SDS011;21665;40.108;18.302;2023-06-22T07:19:12;24.60;;;22.75;;
35562;SDS011;21665;40.108;18.302;2023-06-22T07:21:39;24.23;;;22.38;;
35562;SDS011;21665;40.108;18.302;2023-06-22T07:24:06;24.65;;;22.63;;
35562;SDS011;21665;40.108;18.302;2023-06-22T07:26:33;23.35;;;21.75;;
35562;SDS011;21665;40.108;18.302;2023-06-22T07:28:59;25.05;;;22.63;;
35562;SDS011;21665;40.108;18.302;2023-06-22T07:31:26;25.27;;;23.52;;
35562;SDS011;21665;40.108;18.302;2023-06-22T07:33:52;24.58;;;22.92;;
35562;SDS011;21665;40.108;18.302;2023-06-22T07:36:18;25.73;;;23.77;;
35562;SDS011;21665;40.108;18.302;2023-06-22T07:38:45;25.25;;;23.30;;
35562;SDS011;21665;40.108;18.302;2023-06-22T07:41:11;24.67;;;22.90;;
35562;SDS011;21665;40.108;18.302;2023-06-22T07:43:38;23.77;;;22.23;;
35562;SDS011;21665;40.108;18.302;2023-06-22T07:46:04;24.77;;;22.92;;
35562;SDS011;21665;40.108;18.302;2023-06-22T07:48:31;24.98;;;23.13;;
35562;SDS011;21665;40.108;18.302;2023-06-22T07:50:58;24.88;;;23.08;;
35562;SDS011;21665;40.108;18.302;2023-06-22T07:53:24;24.95;;;22.95;;
35562;SDS011;21665;40.108;18.302;2023-06-22T07:55:50;24.83;;;22.90;;
35562;SDS011;21665;40.108;18.302;2023-06-22T07:58:16;24.45;;;22.75;;
35562;SDS011;21665;40.108;18.302;2023-06-22T08:00:44;24.33;;;22.63;;
35562;SDS011;21665;40.108;18.302;2023-06-22T08:03:11;25.40;;;23.38;;
35562;SDS011;21665;40.108;18.302;2023-06-22T08:05:37;24.95;;;23.17;;
35562;SDS011;21665;40.108;18.302;2023-06-22T08:08:05;24.30;;;22.70;;
35562;SDS011;21665;40.108;18.302;2023-06-22T08:10:32;24.73;;;22.98;;
35562;SDS011;21665;40.108;18.302;2023-06-22T08:12:58;25.15;;;23.23;;
35562;SDS011;21665;40.108;18.302;2023-06-22T08:15:25;24.85;;;23.13;;
35562;SDS011;21665;40.108;18.302;2023-06-22T08:17:53;25.95;;;23.70;;
35562;SDS011;21665;40.108;18.302;2023-06-22T08:20:19;24.55;;;22.77;;
35562;SDS011;21665;40.108;18.302;2023-06-22T08:22:46;25.13;;;23.30;;
35562;SDS011;21665;40.108;18.302;2023-06-22T08:25:12;25.17;;;23.55;;
35562;SDS011;21665;40.108;18.302;2023-06-22T08:27:39;24.65;;;22.95;;
35562;SDS011;21665;40.108;18.302;2023-06-22T08:30:06;25.20;;;23.40;;
35562;SDS011;21665;40.108;18.302;2023-06-22T08:32:32;25.10;;;23.48;;
35562;SDS011;21665;40.108;18.302;2023-06-22T08:34:59;25.15;;;23.55;;
35562;SDS011;21665;40.108;18.302;2023-06-22T08:37:25;24.83;;;23.33;;
35562;SDS011;21665;40.108;18.302;2023-06-22T08:39:59;24.85;;;23.27;;
35562;SDS011;21665;40.108;18.302;2023-06-22T08:42:34;25.35;;;23.30;;
35562;SDS011;21665;40.108;18.302;2023-06-22T08:45:01;25.85;;;24.13;;
35562;SDS011;21665;40.108;18.302;2023-06-22T08:47:28;26.23;;;24.25;;
35562;SDS011;21665;40.108;18.302;2023-06-22T08:49:54;26.08;;;24.33;;
35562;SDS011;21665;40.108;18.302;2023-06-22T08:52:21;26.45;;;24.63;;
35562;SDS011;21665;40.108;18.302;2023-06-22T08:54:48;25.52;;;23.83;;
35562;SDS011;21665;40.108;18.302;2023-06-22T08:57:15;26.80;;;24.65;;
35562;SDS011;21665;40.108;18.302;2023-06-22T08:59:41;26.13;;;24.40;;
35562;SDS011;21665;40.108;18.302;2023-06-22T09:02:08;26.33;;;24.50;;
35562;SDS011;21665;40.108;18.302;2023-06-22T09:04:34;25.92;;;24.33;;
35562;SDS011;21665;40.108;18.302;2023-06-22T09:07:01;26.50;;;24.70;;
35562;SDS011;21665;40.108;18.302;2023-06-22T09:09:28;26.48;;;24.55;;
35562;SDS011;21665;40.108;18.302;2023-06-22T09:11:54;25.65;;;23.75;;
35562;SDS011;21665;40.108;18.302;2023-06-22T09:14:20;25.60;;;23.50;;
35562;SDS011;21665;40.108;18.302;2023-06-22T09:16:47;25.95;;;23.90;;
35562;SDS011;21665;40.108;18.302;2023-06-22T09:19:14;24.80;;;23.30;;
35562;SDS011;21665;40.108;18.302;2023-06-22T09:21:40;24.70;;;22.88;;
35562;SDS011;21665;40.108;18.302;2023-06-22T09:24:07;24.70;;;22.95;;
35562;SDS011;21665;40.108;18.302;2023-06-22T09:26:33;25.55;;;23.65;;
35562;SDS011;21665;40.108;18.302;2023-06-22T09:28:59;25.27;;;23.35;;
35562;SDS011;21665;40.108;18.302;2023-06-22T09:31:26;25.52;;;23.33;;
35562;SDS011;21665;40.108;18.302;2023-06-22T09:33:52;26.20;;;24.40;;
35562;SDS011;21665;40.108;18.302;2023-06-22T09:36:20;26.10;;;24.10;;
35562;SDS011;21665;40.108;18.302;2023-06-22T09:38:47;27.20;;;24.60;;
35562;SDS011;21665;40.108;18.302;2023-06-22T09:41:20;25.80;;;24.00;;
35562;SDS011;21665;40.108;18.302;2023-06-22T09:43:47;25.90;;;23.77;;
35562;SDS011;21665;40.108;18.302;2023-06-22T09:46:17;25.92;;;24.15;;
35562;SDS011;21665;40.108;18.302;2023-06-22T09:48:43;26.38;;;24.23;;
35562;SDS011;21665;40.108;18.302;2023-06-22T09:51:10;26.25;;;24.10;;
35562;SDS011;21665;40.108;18.302;2023-06-22T09:53:37;25.80;;;23.65;;
35562;SDS011;21665;40.108;18.302;2023-06-22T09:56:03;24.92;;;23.13;;
35562;SDS011;21665;40.108;18.302;2023-06-22T09:58:35;24.45;;;22.40;;
35562;SDS011;21665;40.108;18.302;2023-06-22T10:01:01;23.80;;;22.13;;
35562;SDS011;21665;40.108;18.302;2023-06-22T10:03:27;24.90;;;23.20;;
35562;SDS011;21665;40.108;18.302;2023-06-22T10:05:54;24.42;;;22.50;;
35562;SDS011;21665;40.108;18.302;2023-06-22T10:08:20;26.38;;;23.60;;
35562;SDS011;21665;40.108;18.302;2023-06-22T10:10:46;25.15;;;22.80;;
35562;SDS011;21665;40.108;18.302;2023-06-22T10:13:13;24.42;;;22.48;;
35562;SDS011;21665;40.108;18.302;2023-06-22T10:15:41;24.90;;;22.70;;
35562;SDS011;21665;40.108;18.302;2023-06-22T10:18:08;25.42;;;23.63;;
35562;SDS011;21665;40.108;18.302;2023-06-22T10:20:34;24.55;;;22.85;;
35562;SDS011;21665;40.108;18.302;2023-06-22T10:23:01;23.83;;;22.20;;
35562;SDS011;21665;40.108;18.302;2023-06-22T10:25:27;24.02;;;22.17;;
35562;SDS011;21665;40.108;18.302;2023-06-22T10:27:54;24.48;;;22.55;;
35562;SDS011;21665;40.108;18.302;2023-06-22T10:30:20;25.05;;;23.33;;
35562;SDS011;21665;40.108;18.302;2023-06-22T10:32:47;24.95;;;23.23;;
35562;SDS011;21665;40.108;18.302;2023-06-22T10:35:13;25.02;;;23.13;;
35562;SDS011;21665;40.108;18.302;2023-06-22T10:37:44;25.17;;;23.08;;
35562;SDS011;21665;40.108;18.302;2023-06-22T10:40:14;25.02;;;23.02;;
35562;SDS011;21665;40.108;18.302;2023-06-22T10:42:42;24.70;;;22.85;;
35562;SDS011;21665;40.108;18.302;2023-06-22T10:45:09;24.70;;;22.80;;
35562;SDS011;21665;40.108;18.302;2023-06-22T10:47:36;24.70;;;22.85;;
35562;SDS011;21665;40.108;18.302;2023-06-22T10:50:02;24.83;;;22.90;;
35562;SDS011;21665;40.108;18.302;2023-06-22T10:52:32;25.95;;;23.70;;
35562;SDS011;21665;40.108;18.302;2023-06-22T10:54:58;24.55;;;22.65;;
35562;SDS011;21665;40.108;18.302;2023-06-22T10:57:25;25.17;;;23.38;;
35562;SDS011;21665;40.108;18.302;2023-06-22T10:59:51;25.40;;;23.23;;
35562;SDS011;21665;40.108;18.302;2023-06-22T11:02:17;23.95;;;22.25;;
35562;SDS011;21665;40.108;18.302;2023-06-22T11:04:44;24.23;;;22.60;;
35562;SDS011;21665;40.108;18.302;2023-06-22T11:07:11;25.02;;;22.83;;
35562;SDS011;21665;40.108;18.302;2023-06-22T11:09:37;25.05;;;23.10;;
35562;SDS011;21665;40.108;18.302;2023-06-22T11:12:05;24.27;;;22.52;;
35562;SDS011;21665;40.108;18.302;2023-06-22T11:17:25;24.42;;;22.42;;
35562;SDS011;21665;40.108;18.302;2023-06-22T11:22:57;25.02;;;23.02;;
35562;SDS011;21665;40.108;18.302;2023-06-22T11:25:29;25.17;;;22.50;;
35562;SDS011;21665;40.108;18.302;2023-06-22T11:27:56;25.00;;;23.25;;
35562;SDS011;21665;40.108;18.302;2023-06-22T11:30:28;25.83;;;23.55;;
35562;SDS011;21665;40.108;18.302;2023-06-22T11:32:56;24.63;;;22.80;;
35562;SDS011;21665;40.108;18.302;2023-06-22T11:35:25;25.40;;;23.50;;
35562;SDS011;21665;40.108;18.302;2023-06-22T11:37:51;25.42;;;23.52;;
35562;SDS011;21665;40.108;18.302;2023-06-22T11:40:18;25.20;;;23.52;;
35562;SDS011;21665;40.108;18.302;2023-06-22T11:42:44;25.70;;;23.77;;
35562;SDS011;21665;40.108;18.302;2023-06-22T11:45:11;25.15;;;23.08;;
35562;SDS011;21665;40.108;18.302;2023-06-22T11:47:37;25.15;;;23.27;;
35562;SDS011;21665;40.108;18.302;2023-06-22T11:50:06;25.15;;;22.95;;
35562;SDS011;21665;40.108;18.302;2023-06-22T11:52:46;24.45;;;22.85;;
35562;SDS011;21665;40.108;18.302;2023-06-22T11:55:23;25.10;;;23.23;;
35562;SDS011;21665;40.108;18.302;2023-06-22T11:57:57;26.00;;;23.63;;
35562;SDS011;21665;40.108;18.302;2023-06-22T12:00:29;25.60;;;23.47;;
35562;SDS011;21665;40.108;18.302;2023-06-22T12:02:58;24.33;;;22.65;;
35562;SDS011;21665;40.108;18.302;2023-06-22T12:08:00;26.00;;;23.85;;
35562;SDS011;21665;40.108;18.302;2023-06-22T12:13:02;24.58;;;22.90;;
35562;SDS011;21665;40.108;18.302;2023-06-22T12:15:34;25.40;;;23.50;;
35562;SDS011;21665;40.108;18.302;2023-06-22T12:18:01;26.70;;;24.00;;
35562;SDS011;21665;40.108;18.302;2023-06-22T12:20:39;25.95;;;24.15;;
35562;SDS011;21665;40.108;18.302;2023-06-22T12:36:37;26.05;;;23.90;;
35562;SDS011;21665;40.108;18.302;2023-06-22T12:39:04;25.30;;;23.65;;
35562;SDS011;21665;40.108;18.302;2023-06-22T12:41:30;25.70;;;23.90;;
35562;SDS011;21665;40.108;18.302;2023-06-22T12:43:57;25.30;;;22.98;;
35562;SDS011;21665;40.108;18.302;2023-06-22T12:46:23;25.55;;;23.95;;
35562;SDS011;21665;40.108;18.302;2023-06-22T12:48:50;25.55;;;23.42;;
35562;SDS011;21665;40.108;18.302;2023-06-22T12:58:07;24.90;;;23.10;;
35562;SDS011;21665;40.108;18.302;2023-06-22T13:00:40;26.50;;;24.33;;
35562;SDS011;21665;40.108;18.302;2023-06-22T15:04:23;24.08;;;22.48;;
35562;SDS011;21665;40.108;18.302;2023-06-22T15:25:40;25.48;;;23.33;;
35562;SDS011;21665;40.108;18.302;2023-06-22T15:38:00;25.92;;;23.67;;
35562;SDS011;21665;40.108;18.302;2023-06-22T16:04:34;24.90;;;23.05;;
35562;SDS011;21665;40.108;18.302;2023-06-22T17:04:35;24.17;;;22.30;;
35562;SDS011;21665;40.108;18.302;2023-06-22T17:45:23;22.02;;;20.50;;
35562;SDS011;21665;40.108;18.302;2023-06-22T18:19:42;20.15;;;18.52;;
35562;SDS011;21665;40.108;18.302;2023-06-22T21:04:06;27.15;;;21.63;;
35562;SDS011;21665;40.108;18.302;2023-06-22T21:06:38;21.85;;;20.02;;
35562;SDS011;21665;40.108;18.302;2023-06-22T21:09:04;22.20;;;20.20;;
35562;SDS011;21665;40.108;18.302;2023-06-22T21:11:31;21.48;;;19.65;;
35562;SDS011;21665;40.108;18.302;2023-06-22T21:13:57;21.33;;;19.13;;
35562;SDS011;21665;40.108;18.302;2023-06-22T21:16:27;21.48;;;19.42;;
35562;SDS011;21665;40.108;18.302;2023-06-22T21:18:54;21.55;;;18.85;;
35562;SDS011;21665;40.108;18.302;2023-06-22T21:21:21;20.27;;;18.48;;
35562;SDS011;21665;40.108;18.302;2023-06-22T21:23:48;20.05;;;18.30;;
35562;SDS011;21665;40.108;18.302;2023-06-22T21:26:14;19.85;;;18.15;;
35562;SDS011;21665;40.108;18.302;2023-06-22T21:28:40;20.63;;;18.50;;
35562;SDS011;21665;40.108;18.302;2023-06-22T21:31:07;20.23;;;18.42;;
35562;SDS011;21665;40.108;18.302;2023-06-22T21:33:36;20.48;;;18.67;;
35562;SDS011;21665;40.108;18.302;2023-06-22T21:36:02;21.30;;;19.27;;
35562;SDS011;21665;40.108;18.302;2023-06-22T21:38:29;20.13;;;18.42;;
35562;SDS011;21665;40.108;18.302;2023-06-22T21:40:56;22.00;;;19.95;;
35562;SDS011;21665;40.108;18.302;2023-06-22T21:43:49;21.83;;;19.52;;
35562;SDS011;21665;40.108;18.302;2023-06-22T21:46:19;22.42;;;20.27;;
35562;SDS011;21665;40.108;18.302;2023-06-22T21:48:47;22.17;;;20.02;;
35562;SDS011;21665;40.108;18.302;2023-06-22T21:51:19;21.52;;;19.40;;
35562;SDS011;21665;40.108;18.302;2023-06-22T21:53:46;21.50;;;19.35;;
35562;SDS011;21665;40.108;18.302;2023-06-22T22:57:00;18.13;;;16.38;;
35562;SDS011;21665;40.108;18.302;2023-06-22T22:59:27;18.45;;;16.75;;
35562;SDS011;21665;40.108;18.302;2023-06-22T23:01:54;18.02;;;16.13;;
